sensor_id;sensor_type;location;lat;lon;timestamp;P1;durP1;ratioP1;P2;durP2;ratioP2
78346;SDS011;67803;41.330;69.282;2024-03-08T00:01:00;14.95;;;10.20;;
78346;SDS011;67803;41.330;69.282;2024-03-08T00:03:31;13.77;;;9.98;;
78346;SDS011;67803;41.330;69.282;2024-03-08T00:06:02;16.15;;;10.20;;
78346;SDS011;67803;41.330;69.282;2024-03-08T00:08:34;12.77;;;9.63;;
78346;SDS011;67803;41.330;69.282;2024-03-08T00:11:05;15.40;;;9.63;;
78346;SDS011;67803;41.330;69.282;2024-03-08T00:13:36;13.15;;;9.35;;
78346;SDS011;67803;41.330;69.282;2024-03-08T00:16:06;14.07;;;9.65;;
78346;SDS011;67803;41.330;69.282;2024-03-08T00:18:39;14.13;;;9.63;;
78346;SDS011;67803;41.330;69.282;2024-03-08T00:21:09;13.82;;;9.10;;
78346;SDS011;67803;41.330;69.282;2024-03-08T00:23:42;13.75;;;9.77;;
78346;SDS011;67803;41.330;69.282;2024-03-08T00:26:12;10.70;;;8.07;;
78346;SDS011;67803;41.330;69.282;2024-03-08T00:28:43;17.25;;;9.00;;
78346;SDS011;67803;41.330;69.282;2024-03-08T00:31:14;13.27;;;8.43;;
78346;SDS011;67803;41.330;69.282;2024-03-08T00:33:46;13.23;;;9.07;;
78346;SDS011;67803;41.330;69.282;2024-03-08T00:36:16;11.13;;;8.60;;
78346;SDS011;67803;41.330;69.282;2024-03-08T00:38:47;13.68;;;8.75;;
78346;SDS011;67803;41.330;69.282;2024-03-08T00:41:18;12.55;;;8.70;;
78346;SDS011;67803;41.330;69.282;2024-03-08T00:43:48;12.68;;;9.45;;
78346;SDS011;67803;41.330;69.282;2024-03-08T00:46:19;13.85;;;9.30;;
78346;SDS011;67803;41.330;69.282;2024-03-08T00:48:50;13.30;;;9.48;;
78346;SDS011;67803;41.330;69.282;2024-03-08T00:51:20;12.65;;;9.35;;
78346;SDS011;67803;41.330;69.282;2024-03-08T00:53:51;12.88;;;9.10;;
78346;SDS011;67803;41.330;69.282;2024-03-08T00:56:22;11.85;;;8.75;;
78346;SDS011;67803;41.330;69.282;2024-03-08T00:58:52;14.05;;;8.73;;
78346;SDS011;67803;41.330;69.282;2024-03-08T01:01:23;11.50;;;8.98;;
78346;SDS011;67803;41.330;69.282;2024-03-08T01:03:54;13.35;;;8.90;;
78346;SDS011;67803;41.330;69.282;2024-03-08T01:06:25;13.35;;;9.25;;
78346;SDS011;67803;41.330;69.282;2024-03-08T01:08:57;14.00;;;9.27;;
78346;SDS011;67803;41.330;69.282;2024-03-08T01:11:27;13.48;;;9.50;;
78346;SDS011;67803;41.330;69.282;2024-03-08T01:13:58;13.18;;;8.77;;
78346;SDS011;67803;41.330;69.282;2024-03-08T01:16:28;13.63;;;9.38;;
78346;SDS011;67803;41.330;69.282;2024-03-08T01:18:59;14.85;;;9.48;;
78346;SDS011;67803;41.330;69.282;2024-03-08T01:21:30;13.15;;;9.07;;
78346;SDS011;67803;41.330;69.282;2024-03-08T01:24:00;13.20;;;9.10;;
78346;SDS011;67803;41.330;69.282;2024-03-08T01:26:31;15.45;;;10.20;;
78346;SDS011;67803;41.330;69.282;2024-03-08T01:29:02;13.60;;;9.65;;
78346;SDS011;67803;41.330;69.282;2024-03-08T01:31:35;13.70;;;9.57;;
78346;SDS011;67803;41.330;69.282;2024-03-08T01:34:06;14.70;;;10.07;;
78346;SDS011;67803;41.330;69.282;2024-03-08T01:36:37;14.35;;;9.57;;
78346;SDS011;67803;41.330;69.282;2024-03-08T01:39:07;14.43;;;10.38;;
78346;SDS011;67803;41.330;69.282;2024-03-08T01:41:39;16.15;;;10.00;;
78346;SDS011;67803;41.330;69.282;2024-03-08T01:44:10;13.75;;;10.20;;
78346;SDS011;67803;41.330;69.282;2024-03-08T01:46:41;14.60;;;9.95;;
78346;SDS011;67803;41.330;69.282;2024-03-08T01:49:12;13.80;;;10.57;;
78346;SDS011;67803;41.330;69.282;2024-03-08T01:51:43;15.55;;;11.38;;
78346;SDS011;67803;41.330;69.282;2024-03-08T01:54:14;17.23;;;11.18;;
78346;SDS011;67803;41.330;69.282;2024-03-08T01:56:45;15.43;;;10.73;;
78346;SDS011;67803;41.330;69.282;2024-03-08T01:59:16;16.20;;;10.82;;
78346;SDS011;67803;41.330;69.282;2024-03-08T02:01:47;18.25;;;12.10;;
78346;SDS011;67803;41.330;69.282;2024-03-08T02:04:18;14.65;;;10.73;;
78346;SDS011;67803;41.330;69.282;2024-03-08T02:06:49;21.02;;;11.05;;
78346;SDS011;67803;41.330;69.282;2024-03-08T02:09:20;16.40;;;10.77;;
78346;SDS011;67803;41.330;69.282;2024-03-08T02:11:50;14.65;;;10.10;;
78346;SDS011;67803;41.330;69.282;2024-03-08T02:14:21;12.73;;;9.93;;
78346;SDS011;67803;41.330;69.282;2024-03-08T02:16:52;15.57;;;10.55;;
78346;SDS011;67803;41.330;69.282;2024-03-08T02:19:24;16.15;;;10.10;;
78346;SDS011;67803;41.330;69.282;2024-03-08T02:21:54;14.43;;;9.80;;
78346;SDS011;67803;41.330;69.282;2024-03-08T02:24:25;12.68;;;8.88;;
78346;SDS011;67803;41.330;69.282;2024-03-08T02:26:56;11.80;;;8.65;;
78346;SDS011;67803;41.330;69.282;2024-03-08T02:29:26;13.85;;;9.43;;
78346;SDS011;67803;41.330;69.282;2024-03-08T02:31:57;14.13;;;9.80;;
78346;SDS011;67803;41.330;69.282;2024-03-08T02:34:28;14.35;;;8.80;;
78346;SDS011;67803;41.330;69.282;2024-03-08T02:36:58;15.55;;;8.77;;
78346;SDS011;67803;41.330;69.282;2024-03-08T02:39:29;15.10;;;9.10;;
78346;SDS011;67803;41.330;69.282;2024-03-08T02:41:59;22.38;;;12.93;;
78346;SDS011;67803;41.330;69.282;2024-03-08T02:44:30;15.35;;;9.35;;
78346;SDS011;67803;41.330;69.282;2024-03-08T02:47:00;16.23;;;9.18;;
78346;SDS011;67803;41.330;69.282;2024-03-08T02:49:31;15.70;;;8.98;;
78346;SDS011;67803;41.330;69.282;2024-03-08T02:52:01;16.15;;;9.05;;
78346;SDS011;67803;41.330;69.282;2024-03-08T02:54:32;18.88;;;9.90;;
78346;SDS011;67803;41.330;69.282;2024-03-08T02:57:02;15.93;;;9.32;;
78346;SDS011;67803;41.330;69.282;2024-03-08T02:59:34;14.40;;;8.90;;
78346;SDS011;67803;41.330;69.282;2024-03-08T03:02:04;14.43;;;9.13;;
78346;SDS011;67803;41.330;69.282;2024-03-08T03:04:36;12.45;;;8.13;;
78346;SDS011;67803;41.330;69.282;2024-03-08T03:07:09;15.02;;;8.63;;
78346;SDS011;67803;41.330;69.282;2024-03-08T03:09:41;13.18;;;8.60;;
78346;SDS011;67803;41.330;69.282;2024-03-08T03:12:11;12.25;;;8.10;;
78346;SDS011;67803;41.330;69.282;2024-03-08T03:14:42;15.93;;;8.88;;
78346;SDS011;67803;41.330;69.282;2024-03-08T03:17:12;12.63;;;8.35;;
78346;SDS011;67803;41.330;69.282;2024-03-08T03:19:43;13.60;;;7.97;;
78346;SDS011;67803;41.330;69.282;2024-03-08T03:22:13;17.13;;;8.90;;
78346;SDS011;67803;41.330;69.282;2024-03-08T03:24:45;13.88;;;8.20;;
78346;SDS011;67803;41.330;69.282;2024-03-08T03:27:16;11.05;;;7.75;;
78346;SDS011;67803;41.330;69.282;2024-03-08T03:29:47;12.27;;;8.40;;
78346;SDS011;67803;41.330;69.282;2024-03-08T03:32:19;12.20;;;8.43;;
78346;SDS011;67803;41.330;69.282;2024-03-08T03:34:49;14.23;;;8.32;;
78346;SDS011;67803;41.330;69.282;2024-03-08T03:37:23;13.27;;;8.10;;
78346;SDS011;67803;41.330;69.282;2024-03-08T03:39:54;16.88;;;7.95;;
78346;SDS011;67803;41.330;69.282;2024-03-08T03:42:25;10.40;;;7.32;;
78346;SDS011;67803;41.330;69.282;2024-03-08T03:44:56;11.18;;;7.80;;
78346;SDS011;67803;41.330;69.282;2024-03-08T03:47:27;15.13;;;8.65;;
78346;SDS011;67803;41.330;69.282;2024-03-08T03:49:58;14.07;;;7.78;;
78346;SDS011;67803;41.330;69.282;2024-03-08T03:52:32;14.02;;;8.02;;
78346;SDS011;67803;41.330;69.282;2024-03-08T03:55:03;15.48;;;8.07;;
78346;SDS011;67803;41.330;69.282;2024-03-08T03:57:34;13.90;;;8.35;;
78346;SDS011;67803;41.330;69.282;2024-03-08T04:00:05;13.70;;;8.63;;
78346;SDS011;67803;41.330;69.282;2024-03-08T04:02:37;13.63;;;7.82;;
78346;SDS011;67803;41.330;69.282;2024-03-08T04:05:08;12.77;;;9.02;;
78346;SDS011;67803;41.330;69.282;2024-03-08T04:07:39;12.57;;;7.05;;
78346;SDS011;67803;41.330;69.282;2024-03-08T04:10:10;13.15;;;7.07;;
78346;SDS011;67803;41.330;69.282;2024-03-08T04:12:41;11.90;;;8.05;;
78346;SDS011;67803;41.330;69.282;2024-03-08T04:15:12;18.60;;;8.07;;
78346;SDS011;67803;41.330;69.282;2024-03-08T04:17:42;15.00;;;8.30;;
78346;SDS011;67803;41.330;69.282;2024-03-08T04:20:16;11.73;;;7.75;;
78346;SDS011;67803;41.330;69.282;2024-03-08T04:22:47;13.55;;;7.45;;
78346;SDS011;67803;41.330;69.282;2024-03-08T04:25:19;12.68;;;6.95;;
78346;SDS011;67803;41.330;69.282;2024-03-08T04:27:50;14.70;;;7.75;;
78346;SDS011;67803;41.330;69.282;2024-03-08T04:30:22;14.00;;;8.00;;
78346;SDS011;67803;41.330;69.282;2024-03-08T04:32:53;10.00;;;6.35;;
78346;SDS011;67803;41.330;69.282;2024-03-08T04:35:23;10.32;;;7.65;;
78346;SDS011;67803;41.330;69.282;2024-03-08T04:37:54;18.67;;;8.75;;
78346;SDS011;67803;41.330;69.282;2024-03-08T04:40:24;14.10;;;7.72;;
78346;SDS011;67803;41.330;69.282;2024-03-08T04:42:55;15.10;;;7.70;;
78346;SDS011;67803;41.330;69.282;2024-03-08T04:45:26;11.88;;;7.53;;
78346;SDS011;67803;41.330;69.282;2024-03-08T04:47:56;12.73;;;7.28;;
78346;SDS011;67803;41.330;69.282;2024-03-08T04:50:27;12.52;;;7.50;;
78346;SDS011;67803;41.330;69.282;2024-03-08T04:52:59;12.68;;;7.30;;
78346;SDS011;67803;41.330;69.282;2024-03-08T04:55:29;13.63;;;7.50;;
78346;SDS011;67803;41.330;69.282;2024-03-08T04:58:00;9.75;;;7.05;;
78346;SDS011;67803;41.330;69.282;2024-03-08T05:00:31;13.65;;;7.22;;
78346;SDS011;67803;41.330;69.282;2024-03-08T05:03:01;10.85;;;7.85;;
78346;SDS011;67803;41.330;69.282;2024-03-08T05:05:32;12.80;;;7.07;;
78346;SDS011;67803;41.330;69.282;2024-03-08T05:08:04;14.70;;;7.35;;
78346;SDS011;67803;41.330;69.282;2024-03-08T05:10:35;15.27;;;9.38;;
78346;SDS011;67803;41.330;69.282;2024-03-08T05:13:06;12.60;;;7.32;;
78346;SDS011;67803;41.330;69.282;2024-03-08T05:15:36;10.45;;;6.97;;
78346;SDS011;67803;41.330;69.282;2024-03-08T05:18:09;11.77;;;7.43;;
78346;SDS011;67803;41.330;69.282;2024-03-08T05:20:41;13.95;;;7.15;;
78346;SDS011;67803;41.330;69.282;2024-03-08T05:23:12;12.32;;;7.70;;
78346;SDS011;67803;41.330;69.282;2024-03-08T05:25:42;12.65;;;7.60;;
78346;SDS011;67803;41.330;69.282;2024-03-08T05:28:13;12.57;;;7.72;;
78346;SDS011;67803;41.330;69.282;2024-03-08T05:30:44;16.33;;;8.32;;
78346;SDS011;67803;41.330;69.282;2024-03-08T05:33:14;15.70;;;7.45;;
78346;SDS011;67803;41.330;69.282;2024-03-08T05:35:45;11.65;;;7.25;;
78346;SDS011;67803;41.330;69.282;2024-03-08T05:38:15;11.40;;;7.45;;
78346;SDS011;67803;41.330;69.282;2024-03-08T05:40:46;15.68;;;8.43;;
78346;SDS011;67803;41.330;69.282;2024-03-08T05:43:17;14.93;;;8.95;;
78346;SDS011;67803;41.330;69.282;2024-03-08T05:45:49;17.05;;;7.93;;
78346;SDS011;67803;41.330;69.282;2024-03-08T05:48:20;13.40;;;8.40;;
78346;SDS011;67803;41.330;69.282;2024-03-08T05:50:52;15.85;;;8.85;;
78346;SDS011;67803;41.330;69.282;2024-03-08T05:53:23;14.40;;;8.25;;
78346;SDS011;67803;41.330;69.282;2024-03-08T05:55:53;12.90;;;7.97;;
78346;SDS011;67803;41.330;69.282;2024-03-08T05:58:24;13.23;;;8.13;;
78346;SDS011;67803;41.330;69.282;2024-03-08T06:00:55;13.35;;;8.27;;
78346;SDS011;67803;41.330;69.282;2024-03-08T06:03:25;12.43;;;7.22;;
78346;SDS011;67803;41.330;69.282;2024-03-08T06:05:56;13.95;;;8.07;;
78346;SDS011;67803;41.330;69.282;2024-03-08T06:08:27;19.60;;;8.00;;
78346;SDS011;67803;41.330;69.282;2024-03-08T06:11:00;16.13;;;7.57;;
78346;SDS011;67803;41.330;69.282;2024-03-08T06:13:32;21.73;;;7.93;;
78346;SDS011;67803;41.330;69.282;2024-03-08T06:16:04;11.02;;;7.97;;
78346;SDS011;67803;41.330;69.282;2024-03-08T06:18:34;17.70;;;8.35;;
78346;SDS011;67803;41.330;69.282;2024-03-08T06:21:09;17.85;;;8.38;;
78346;SDS011;67803;41.330;69.282;2024-03-08T06:23:41;15.63;;;9.18;;
78346;SDS011;67803;41.330;69.282;2024-03-08T06:26:12;18.08;;;8.27;;
78346;SDS011;67803;41.330;69.282;2024-03-08T06:28:43;13.45;;;7.80;;
78346;SDS011;67803;41.330;69.282;2024-03-08T06:31:13;13.80;;;8.30;;
78346;SDS011;67803;41.330;69.282;2024-03-08T06:33:45;17.73;;;8.95;;
78346;SDS011;67803;41.330;69.282;2024-03-08T06:36:16;23.08;;;9.07;;
78346;SDS011;67803;41.330;69.282;2024-03-08T06:38:49;21.80;;;8.25;;
78346;SDS011;67803;41.330;69.282;2024-03-08T06:41:19;19.08;;;8.05;;
78346;SDS011;67803;41.330;69.282;2024-03-08T06:43:50;15.63;;;8.38;;
78346;SDS011;67803;41.330;69.282;2024-03-08T06:46:22;17.48;;;8.45;;
78346;SDS011;67803;41.330;69.282;2024-03-08T06:48:52;16.27;;;8.13;;
78346;SDS011;67803;41.330;69.282;2024-03-08T06:51:23;17.73;;;8.00;;
78346;SDS011;67803;41.330;69.282;2024-03-08T06:53:54;19.67;;;8.00;;
78346;SDS011;67803;41.330;69.282;2024-03-08T06:56:24;16.63;;;9.68;;
78346;SDS011;67803;41.330;69.282;2024-03-08T06:58:55;15.30;;;8.30;;
78346;SDS011;67803;41.330;69.282;2024-03-08T07:01:26;16.75;;;7.80;;
78346;SDS011;67803;41.330;69.282;2024-03-08T07:03:58;20.05;;;7.65;;
78346;SDS011;67803;41.330;69.282;2024-03-08T07:06:28;15.63;;;7.47;;
78346;SDS011;67803;41.330;69.282;2024-03-08T07:08:59;17.83;;;8.07;;
78346;SDS011;67803;41.330;69.282;2024-03-08T07:11:29;19.33;;;8.02;;
78346;SDS011;67803;41.330;69.282;2024-03-08T07:14:00;16.42;;;7.55;;
78346;SDS011;67803;41.330;69.282;2024-03-08T07:16:35;18.65;;;7.78;;
78346;SDS011;67803;41.330;69.282;2024-03-08T07:19:06;19.90;;;7.70;;
78346;SDS011;67803;41.330;69.282;2024-03-08T07:21:36;25.83;;;7.78;;
78346;SDS011;67803;41.330;69.282;2024-03-08T07:24:07;26.33;;;8.35;;
78346;SDS011;67803;41.330;69.282;2024-03-08T07:26:46;18.35;;;7.15;;
78346;SDS011;67803;41.330;69.282;2024-03-08T07:29:19;18.15;;;7.82;;
78346;SDS011;67803;41.330;69.282;2024-03-08T07:31:50;16.35;;;8.25;;
78346;SDS011;67803;41.330;69.282;2024-03-08T07:34:26;26.58;;;8.90;;
78346;SDS011;67803;41.330;69.282;2024-03-08T07:36:58;21.60;;;8.25;;
78346;SDS011;67803;41.330;69.282;2024-03-08T07:39:29;17.27;;;8.18;;
78346;SDS011;67803;41.330;69.282;2024-03-08T07:42:00;18.42;;;8.45;;
78346;SDS011;67803;41.330;69.282;2024-03-08T07:44:30;22.25;;;8.65;;
78346;SDS011;67803;41.330;69.282;2024-03-08T07:47:02;22.77;;;8.88;;
78346;SDS011;67803;41.330;69.282;2024-03-08T07:49:33;21.70;;;8.13;;
78346;SDS011;67803;41.330;69.282;2024-03-08T07:52:04;15.65;;;7.93;;
78346;SDS011;67803;41.330;69.282;2024-03-08T07:54:37;17.92;;;8.27;;
78346;SDS011;67803;41.330;69.282;2024-03-08T07:57:08;16.25;;;8.10;;
78346;SDS011;67803;41.330;69.282;2024-03-08T07:59:38;20.65;;;7.88;;
78346;SDS011;67803;41.330;69.282;2024-03-08T08:02:09;19.23;;;7.78;;
78346;SDS011;67803;41.330;69.282;2024-03-08T08:04:39;17.42;;;7.50;;
78346;SDS011;67803;41.330;69.282;2024-03-08T08:07:10;20.52;;;8.20;;
78346;SDS011;67803;41.330;69.282;2024-03-08T08:09:41;16.38;;;7.38;;
78346;SDS011;67803;41.330;69.282;2024-03-08T08:12:13;18.70;;;8.23;;
78346;SDS011;67803;41.330;69.282;2024-03-08T08:14:43;16.45;;;7.57;;
78346;SDS011;67803;41.330;69.282;2024-03-08T08:17:14;22.20;;;7.90;;
78346;SDS011;67803;41.330;69.282;2024-03-08T08:19:44;18.83;;;7.40;;
78346;SDS011;67803;41.330;69.282;2024-03-08T08:22:15;21.02;;;7.30;;
78346;SDS011;67803;41.330;69.282;2024-03-08T08:24:45;17.48;;;6.78;;
78346;SDS011;67803;41.330;69.282;2024-03-08T08:27:16;17.70;;;8.05;;
78346;SDS011;67803;41.330;69.282;2024-03-08T08:29:46;18.40;;;8.13;;
78346;SDS011;67803;41.330;69.282;2024-03-08T08:32:18;20.52;;;8.07;;
78346;SDS011;67803;41.330;69.282;2024-03-08T08:34:48;19.00;;;7.97;;
78346;SDS011;67803;41.330;69.282;2024-03-08T08:37:19;20.13;;;8.05;;
78346;SDS011;67803;41.330;69.282;2024-03-08T08:39:50;17.48;;;7.55;;
78346;SDS011;67803;41.330;69.282;2024-03-08T08:42:21;14.55;;;7.55;;
78346;SDS011;67803;41.330;69.282;2024-03-08T08:44:52;14.65;;;6.93;;
78346;SDS011;67803;41.330;69.282;2024-03-08T08:47:22;15.40;;;7.53;;
78346;SDS011;67803;41.330;69.282;2024-03-08T08:49:53;24.20;;;8.93;;
78346;SDS011;67803;41.330;69.282;2024-03-08T08:52:24;16.48;;;7.82;;
78346;SDS011;67803;41.330;69.282;2024-03-08T08:54:55;18.17;;;7.90;;
78346;SDS011;67803;41.330;69.282;2024-03-08T08:57:26;17.63;;;8.48;;
78346;SDS011;67803;41.330;69.282;2024-03-08T08:59:58;19.48;;;8.05;;
78346;SDS011;67803;41.330;69.282;2024-03-08T09:02:30;18.90;;;7.70;;
78346;SDS011;67803;41.330;69.282;2024-03-08T09:05:01;22.45;;;9.23;;
78346;SDS011;67803;41.330;69.282;2024-03-08T09:07:32;19.90;;;9.18;;
78346;SDS011;67803;41.330;69.282;2024-03-08T09:10:04;21.35;;;11.38;;
78346;SDS011;67803;41.330;69.282;2024-03-08T09:12:34;21.33;;;9.40;;
78346;SDS011;67803;41.330;69.282;2024-03-08T09:15:05;17.80;;;8.45;;
78346;SDS011;67803;41.330;69.282;2024-03-08T09:17:38;17.48;;;7.95;;
78346;SDS011;67803;41.330;69.282;2024-03-08T09:20:13;18.05;;;7.63;;
78346;SDS011;67803;41.330;69.282;2024-03-08T09:22:47;18.25;;;7.63;;
78346;SDS011;67803;41.330;69.282;2024-03-08T09:25:18;23.63;;;10.13;;
78346;SDS011;67803;41.330;69.282;2024-03-08T09:27:48;15.15;;;7.85;;
78346;SDS011;67803;41.330;69.282;2024-03-08T09:30:19;19.30;;;7.97;;
78346;SDS011;67803;41.330;69.282;2024-03-08T09:32:51;17.92;;;7.80;;
78346;SDS011;67803;41.330;69.282;2024-03-08T09:35:22;17.13;;;7.82;;
78346;SDS011;67803;41.330;69.282;2024-03-08T09:37:52;25.45;;;8.43;;
78346;SDS011;67803;41.330;69.282;2024-03-08T09:40:24;18.52;;;7.43;;
78346;SDS011;67803;41.330;69.282;2024-03-08T09:42:55;19.50;;;7.38;;
78346;SDS011;67803;41.330;69.282;2024-03-08T09:45:27;19.25;;;7.13;;
78346;SDS011;67803;41.330;69.282;2024-03-08T09:48:00;19.73;;;8.35;;
78346;SDS011;67803;41.330;69.282;2024-03-08T09:50:31;18.20;;;7.78;;
78346;SDS011;67803;41.330;69.282;2024-03-08T09:53:02;22.60;;;8.63;;
78346;SDS011;67803;41.330;69.282;2024-03-08T09:55:34;21.30;;;7.60;;
78346;SDS011;67803;41.330;69.282;2024-03-08T09:58:06;23.83;;;7.55;;
78346;SDS011;67803;41.330;69.282;2024-03-08T10:01:07;26.40;;;8.07;;
78346;SDS011;67803;41.330;69.282;2024-03-08T10:03:38;17.63;;;7.07;;
78346;SDS011;67803;41.330;69.282;2024-03-08T10:06:09;17.65;;;7.50;;
78346;SDS011;67803;41.330;69.282;2024-03-08T10:08:40;19.70;;;6.95;;
78346;SDS011;67803;41.330;69.282;2024-03-08T10:11:12;14.98;;;6.82;;
78346;SDS011;67803;41.330;69.282;2024-03-08T10:13:44;23.45;;;7.90;;
78346;SDS011;67803;41.330;69.282;2024-03-08T10:16:17;19.08;;;6.72;;
78346;SDS011;67803;41.330;69.282;2024-03-08T10:18:48;20.67;;;7.57;;
78346;SDS011;67803;41.330;69.282;2024-03-08T10:21:19;18.52;;;6.90;;
78346;SDS011;67803;41.330;69.282;2024-03-08T10:23:49;19.30;;;7.05;;
78346;SDS011;67803;41.330;69.282;2024-03-08T10:26:21;16.02;;;6.72;;
78346;SDS011;67803;41.330;69.282;2024-03-08T10:28:52;16.95;;;7.25;;
78346;SDS011;67803;41.330;69.282;2024-03-08T10:31:25;19.40;;;6.55;;
78346;SDS011;67803;41.330;69.282;2024-03-08T10:34:16;15.00;;;6.43;;
78346;SDS011;67803;41.330;69.282;2024-03-08T10:36:47;13.25;;;6.13;;
78346;SDS011;67803;41.330;69.282;2024-03-08T10:39:23;15.30;;;6.60;;
78346;SDS011;67803;41.330;69.282;2024-03-08T10:41:58;16.13;;;6.60;;
78346;SDS011;67803;41.330;69.282;2024-03-08T10:44:48;19.25;;;6.60;;
78346;SDS011;67803;41.330;69.282;2024-03-08T10:47:27;20.40;;;6.50;;
78346;SDS011;67803;41.330;69.282;2024-03-08T10:52:40;14.95;;;7.28;;
78346;SDS011;67803;41.330;69.282;2024-03-08T10:55:10;15.15;;;6.47;;
78346;SDS011;67803;41.330;69.282;2024-03-08T10:57:43;20.70;;;6.70;;
78346;SDS011;67803;41.330;69.282;2024-03-08T11:00:34;15.60;;;7.07;;
78346;SDS011;67803;41.330;69.282;2024-03-08T11:03:05;25.35;;;7.60;;
78346;SDS011;67803;41.330;69.282;2024-03-08T11:05:39;13.43;;;6.68;;
78346;SDS011;67803;41.330;69.282;2024-03-08T11:08:17;20.45;;;7.18;;
78346;SDS011;67803;41.330;69.282;2024-03-08T11:13:33;17.25;;;7.07;;
78346;SDS011;67803;41.330;69.282;2024-03-08T11:16:09;17.35;;;7.32;;
78346;SDS011;67803;41.330;69.282;2024-03-08T11:18:39;21.20;;;8.07;;
78346;SDS011;67803;41.330;69.282;2024-03-08T11:21:10;18.02;;;6.90;;
78346;SDS011;67803;41.330;69.282;2024-03-08T11:24:08;16.63;;;6.95;;
78346;SDS011;67803;41.330;69.282;2024-03-08T11:26:39;18.75;;;7.32;;
78346;SDS011;67803;41.330;69.282;2024-03-08T11:32:12;19.40;;;6.97;;
78346;SDS011;67803;41.330;69.282;2024-03-08T11:34:48;15.95;;;6.10;;
78346;SDS011;67803;41.330;69.282;2024-03-08T11:37:20;17.63;;;6.95;;
78346;SDS011;67803;41.330;69.282;2024-03-08T11:39:52;17.92;;;7.10;;
78346;SDS011;67803;41.330;69.282;2024-03-08T11:42:23;23.42;;;7.93;;
78346;SDS011;67803;41.330;69.282;2024-03-08T11:44:53;20.80;;;7.15;;
78346;SDS011;67803;41.330;69.282;2024-03-08T11:47:24;18.83;;;8.68;;
78346;SDS011;67803;41.330;69.282;2024-03-08T11:49:56;18.50;;;8.23;;
78346;SDS011;67803;41.330;69.282;2024-03-08T11:52:27;14.98;;;7.72;;
78346;SDS011;67803;41.330;69.282;2024-03-08T11:54:57;17.73;;;7.85;;
78346;SDS011;67803;41.330;69.282;2024-03-08T11:57:28;17.58;;;7.78;;
78346;SDS011;67803;41.330;69.282;2024-03-08T12:00:01;11.98;;;6.93;;
78346;SDS011;67803;41.330;69.282;2024-03-08T12:02:36;20.67;;;6.88;;
78346;SDS011;67803;41.330;69.282;2024-03-08T12:05:08;21.20;;;7.55;;
78346;SDS011;67803;41.330;69.282;2024-03-08T12:07:55;22.65;;;7.68;;
78346;SDS011;67803;41.330;69.282;2024-03-08T12:10:26;13.57;;;7.10;;
78346;SDS011;67803;41.330;69.282;2024-03-08T12:12:58;20.63;;;8.25;;
78346;SDS011;67803;41.330;69.282;2024-03-08T12:15:33;21.25;;;8.07;;
78346;SDS011;67803;41.330;69.282;2024-03-08T12:18:04;26.77;;;8.27;;
78346;SDS011;67803;41.330;69.282;2024-03-08T12:20:35;20.77;;;7.75;;
78346;SDS011;67803;41.330;69.282;2024-03-08T12:23:05;21.05;;;7.45;;
78346;SDS011;67803;41.330;69.282;2024-03-08T12:25:36;17.13;;;8.07;;
78346;SDS011;67803;41.330;69.282;2024-03-08T12:28:07;18.50;;;7.75;;
78346;SDS011;67803;41.330;69.282;2024-03-08T12:30:45;15.80;;;7.38;;
78346;SDS011;67803;41.330;69.282;2024-03-08T12:33:17;20.35;;;7.80;;
78346;SDS011;67803;41.330;69.282;2024-03-08T12:35:54;16.52;;;7.85;;
78346;SDS011;67803;41.330;69.282;2024-03-08T12:38:27;19.98;;;8.00;;
78346;SDS011;67803;41.330;69.282;2024-03-08T12:40:58;20.48;;;8.18;;
78346;SDS011;67803;41.330;69.282;2024-03-08T12:43:29;23.60;;;8.18;;
78346;SDS011;67803;41.330;69.282;2024-03-08T12:46:00;27.75;;;8.65;;
78346;SDS011;67803;41.330;69.282;2024-03-08T12:48:34;21.00;;;7.78;;
78346;SDS011;67803;41.330;69.282;2024-03-08T12:53:37;24.42;;;8.07;;
78346;SDS011;67803;41.330;69.282;2024-03-08T12:56:11;21.23;;;8.85;;
78346;SDS011;67803;41.330;69.282;2024-03-08T12:58:41;21.63;;;8.38;;
78346;SDS011;67803;41.330;69.282;2024-03-08T13:01:13;17.30;;;7.55;;
78346;SDS011;67803;41.330;69.282;2024-03-08T13:03:43;17.27;;;6.95;;
78346;SDS011;67803;41.330;69.282;2024-03-08T13:06:14;20.60;;;8.63;;
78346;SDS011;67803;41.330;69.282;2024-03-08T13:08:44;16.55;;;7.78;;
78346;SDS011;67803;41.330;69.282;2024-03-08T13:11:15;20.90;;;7.78;;
78346;SDS011;67803;41.330;69.282;2024-03-08T13:13:47;16.33;;;7.45;;
78346;SDS011;67803;41.330;69.282;2024-03-08T13:16:18;15.88;;;8.05;;
78346;SDS011;67803;41.330;69.282;2024-03-08T13:18:49;22.30;;;9.18;;
78346;SDS011;67803;41.330;69.282;2024-03-08T13:21:19;18.35;;;8.23;;
78346;SDS011;67803;41.330;69.282;2024-03-08T13:23:54;23.30;;;9.38;;
78346;SDS011;67803;41.330;69.282;2024-03-08T13:26:25;26.00;;;8.50;;
78346;SDS011;67803;41.330;69.282;2024-03-08T13:29:00;25.70;;;9.93;;
78346;SDS011;67803;41.330;69.282;2024-03-08T13:31:31;26.98;;;9.15;;
78346;SDS011;67803;41.330;69.282;2024-03-08T13:34:01;24.30;;;10.05;;
78346;SDS011;67803;41.330;69.282;2024-03-08T13:36:35;22.50;;;8.82;;
78346;SDS011;67803;41.330;69.282;2024-03-08T13:39:12;26.83;;;10.50;;
78346;SDS011;67803;41.330;69.282;2024-03-08T13:41:46;23.35;;;9.77;;
78346;SDS011;67803;41.330;69.282;2024-03-08T13:44:16;23.58;;;10.20;;
78346;SDS011;67803;41.330;69.282;2024-03-08T13:46:50;26.02;;;9.88;;
78346;SDS011;67803;41.330;69.282;2024-03-08T13:49:21;27.10;;;10.70;;
78346;SDS011;67803;41.330;69.282;2024-03-08T13:51:51;29.13;;;10.02;;
78346;SDS011;67803;41.330;69.282;2024-03-08T13:54:24;27.13;;;10.50;;
78346;SDS011;67803;41.330;69.282;2024-03-08T13:56:55;29.65;;;10.52;;
78346;SDS011;67803;41.330;69.282;2024-03-08T13:59:26;24.95;;;9.73;;
78346;SDS011;67803;41.330;69.282;2024-03-08T14:01:59;33.60;;;10.90;;
78346;SDS011;67803;41.330;69.282;2024-03-08T14:04:32;30.92;;;10.05;;
78346;SDS011;67803;41.330;69.282;2024-03-08T14:07:02;33.05;;;11.68;;
78346;SDS011;67803;41.330;69.282;2024-03-08T14:09:36;26.33;;;10.68;;
78346;SDS011;67803;41.330;69.282;2024-03-08T14:12:13;28.15;;;10.43;;
78346;SDS011;67803;41.330;69.282;2024-03-08T14:14:44;39.10;;;12.75;;
78346;SDS011;67803;41.330;69.282;2024-03-08T14:17:14;32.67;;;11.40;;
78346;SDS011;67803;41.330;69.282;2024-03-08T14:19:47;27.75;;;11.13;;
78346;SDS011;67803;41.330;69.282;2024-03-08T14:22:18;39.97;;;15.35;;
78346;SDS011;67803;41.330;69.282;2024-03-08T14:24:48;38.08;;;16.40;;
78346;SDS011;67803;41.330;69.282;2024-03-08T14:27:19;48.92;;;19.95;;
78346;SDS011;67803;41.330;69.282;2024-03-08T14:29:50;49.35;;;18.85;;
78346;SDS011;67803;41.330;69.282;2024-03-08T14:32:20;51.25;;;21.05;;
78346;SDS011;67803;41.330;69.282;2024-03-08T14:34:53;60.15;;;21.83;;
78346;SDS011;67803;41.330;69.282;2024-03-08T14:37:25;49.40;;;22.52;;
78346;SDS011;67803;41.330;69.282;2024-03-08T14:39:59;47.28;;;22.98;;
78346;SDS011;67803;41.330;69.282;2024-03-08T14:42:30;43.10;;;20.83;;
78346;SDS011;67803;41.330;69.282;2024-03-08T14:45:00;45.00;;;20.73;;
78346;SDS011;67803;41.330;69.282;2024-03-08T14:47:31;43.10;;;19.25;;
78346;SDS011;67803;41.330;69.282;2024-03-08T14:50:01;40.92;;;18.85;;
78346;SDS011;67803;41.330;69.282;2024-03-08T14:52:32;34.15;;;17.98;;
78346;SDS011;67803;41.330;69.282;2024-03-08T14:55:04;36.97;;;17.15;;